createdAt,value
2022-11-18T00:01:19.605Z,11.88
2022-11-18T00:03:48.868Z,10.98
2022-11-18T00:06:18.563Z,12.13
2022-11-18T00:08:47.271Z,12.88
2022-11-18T00:11:37.460Z,12.27
2022-11-18T00:14:19.552Z,11.37
2022-11-18T00:16:48.311Z,12.80
2022-11-18T00:19:17.028Z,13.10
2022-11-18T00:21:45.277Z,13.25
2022-11-18T00:24:13.785Z,12.07
2022-11-18T00:26:41.862Z,10.85
2022-11-18T00:29:12.616Z,11.50
2022-11-18T00:31:41.266Z,11.57
2022-11-18T00:34:13.334Z,11.68
2022-11-18T00:36:42.025Z,11.50
2022-11-18T00:39:12.520Z,12.00
2022-11-18T00:41:58.431Z,11.20
2022-11-18T00:44:28.593Z,12.57
2022-11-18T00:46:56.849Z,12.13
2022-11-18T00:49:25.691Z,10.65
2022-11-18T00:51:53.865Z,11.52
2022-11-18T00:54:22.625Z,12.05
2022-11-18T00:56:50.798Z,11.48
2022-11-18T00:59:19.430Z,12.60
2022-11-18T01:01:49.319Z,13.38
2022-11-18T01:04:18.395Z,12.43
2022-11-18T01:06:46.508Z,12.52
2022-11-18T01:09:15.173Z,11.90
2022-11-18T01:12:00.860Z,11.25
2022-11-18T01:14:29.207Z,14.02
2022-11-18T01:16:59.018Z,14.32
2022-11-18T01:19:27.652Z,13.13
2022-11-18T01:21:56.676Z,12.70
2022-11-18T01:24:25.165Z,12.90
2022-11-18T01:26:53.365Z,12.43
2022-11-18T01:29:21.997Z,13.27
2022-11-18T01:32:22.245Z,12.43
2022-11-18T01:34:39.730Z,11.85
2022-11-18T01:37:07.896Z,11.73
2022-11-18T01:39:36.434Z,10.70
2022-11-18T01:42:04.596Z,11.73
2022-11-18T01:44:59.088Z,11.30
2022-11-18T01:47:29.995Z,11.40
2022-11-18T01:50:00.557Z,11.25
2022-11-18T01:52:28.812Z,9.60
2022-11-18T01:55:00.283Z,10.23
2022-11-18T01:57:30.868Z,10.38
2022-11-18T02:00:00.719Z,10.02
2022-11-18T02:02:29.417Z,9.68
2022-11-18T02:04:59.400Z,10.73
2022-11-18T02:07:28.460Z,11.55
2022-11-18T02:09:57.540Z,10.55
2022-11-18T02:12:25.750Z,10.05
2022-11-18T02:14:54.260Z,8.82
2022-11-18T02:17:34.309Z,9.27
2022-11-18T02:20:35.260Z,10.57
2022-11-18T02:23:45.260Z,9.50
2022-11-18T02:27:01.143Z,9.68
2022-11-18T02:29:33.644Z,10.05
2022-11-18T02:32:03.628Z,9.48
2022-11-18T02:34:41.151Z,9.32
2022-11-18T02:37:15.217Z,9.82
2022-11-18T02:39:46.344Z,10.27
2022-11-18T02:44:49.877Z,10.32
2022-11-18T02:47:18.664Z,9.50
2022-11-18T02:49:50.022Z,10.18
2022-11-18T02:52:20.468Z,9.43
2022-11-18T02:54:49.298Z,10.32
2022-11-18T02:57:17.866Z,10.23
2022-11-18T02:59:47.533Z,10.70
2022-11-18T03:02:18.068Z,9.25
2022-11-18T03:04:47.865Z,10.00
2022-11-18T03:07:19.484Z,9.98
2022-11-18T03:09:49.493Z,11.90
2022-11-18T03:12:23.781Z,10.27
2022-11-18T03:15:00.448Z,12.38
2022-11-18T03:17:36.054Z,9.57
2022-11-18T03:20:13.500Z,10.77
2022-11-18T03:22:44.756Z,9.48
2022-11-18T03:25:15.508Z,11.10
2022-11-18T03:27:48.190Z,10.40
2022-11-18T03:30:21.173Z,10.10
2022-11-18T03:32:52.879Z,10.90
2022-11-18T03:40:24.029Z,9.18
2022-11-18T03:42:54.888Z,10.57
2022-11-18T03:45:27.262Z,9.73
2022-11-18T03:47:58.255Z,9.68
2022-11-18T03:50:29.263Z,10.18
2022-11-18T03:55:30.108Z,9.88
2022-11-18T03:58:03.279Z,9.55
2022-11-18T04:00:36.592Z,9.82
2022-11-18T04:03:05.267Z,8.95
2022-11-18T04:05:36.163Z,10.40
2022-11-18T04:08:06.625Z,8.75
2022-11-18T04:10:36.948Z,9.48
2022-11-18T04:13:08.912Z,9.65
2022-11-18T04:15:41.601Z,9.35
2022-11-18T04:18:10.852Z,9.18
2022-11-18T04:20:39.222Z,10.38
2022-11-18T04:23:08.837Z,10.13
2022-11-18T04:25:37.314Z,10.32
2022-11-18T04:28:06.054Z,10.57
2022-11-18T04:30:34.434Z,10.45
2022-11-18T04:33:07.363Z,12.98
2022-11-18T04:35:35.532Z,11.35
2022-11-18T04:38:05.038Z,11.68
2022-11-18T04:40:33.275Z,12.05
2022-11-18T04:43:01.769Z,11.60
2022-11-18T04:45:29.886Z,12.30
2022-11-18T04:48:03.307Z,11.73
2022-11-18T04:50:33.256Z,12.40
2022-11-18T04:53:01.634Z,14.25
2022-11-18T04:55:29.634Z,12.13
2022-11-18T04:57:58.096Z,11.75
2022-11-18T05:00:26.179Z,12.95
2022-11-18T05:02:54.745Z,11.95
2022-11-18T05:05:22.937Z,13.02
2022-11-18T05:07:53.389Z,13.02
2022-11-18T05:10:21.395Z,12.07
2022-11-18T05:12:48.852Z,12.93
2022-11-18T05:15:17.545Z,12.05
2022-11-18T05:17:46.079Z,12.40
2022-11-18T05:20:14.652Z,11.82
2022-11-18T05:22:42.915Z,11.57
2022-11-18T05:25:12.430Z,12.35
2022-11-18T05:27:40.745Z,12.57
2022-11-18T05:30:10.162Z,10.88
2022-11-18T05:32:38.477Z,12.07
2022-11-18T05:35:07.448Z,12.20
2022-11-18T05:37:35.868Z,12.23
2022-11-18T05:40:04.443Z,12.20
2022-11-18T05:42:51.329Z,13.27
2022-11-18T05:45:20.672Z,13.00
2022-11-18T05:48:01.252Z,12.80
2022-11-18T05:50:29.361Z,12.60
2022-11-18T05:52:57.801Z,12.02
2022-11-18T05:55:30.955Z,12.98
2022-11-18T05:58:00.771Z,13.93
2022-11-18T06:00:28.975Z,13.60
2022-11-18T06:02:58.141Z,14.77
2022-11-18T06:05:27.809Z,14.15
2022-11-18T06:07:57.229Z,12.88
2022-11-18T06:10:27.641Z,13.82
2022-11-18T06:12:57.925Z,13.82
2022-11-18T06:15:29.796Z,14.85
2022-11-18T06:18:00.865Z,14.05
2022-11-18T06:20:29.386Z,15.23
2022-11-18T06:22:58.723Z,14.80
2022-11-18T06:25:27.029Z,15.73
2022-11-18T06:27:56.825Z,13.93
2022-11-18T06:30:25.147Z,16.58
2022-11-18T06:32:54.911Z,15.98
2022-11-18T06:35:23.056Z,16.65
2022-11-18T06:37:51.697Z,16.23
2022-11-18T06:40:20.030Z,17.42
2022-11-18T06:43:05.967Z,16.13
2022-11-18T06:45:36.609Z,16.75
2022-11-18T06:48:06.062Z,18.02
2022-11-18T06:50:34.109Z,17.83
2022-11-18T06:53:02.480Z,18.23
2022-11-18T06:55:30.589Z,17.58
2022-11-18T06:57:59.013Z,19.33
2022-11-18T07:00:27.179Z,17.17
2022-11-18T07:02:55.686Z,19.65
2022-11-18T07:05:25.066Z,18.80
2022-11-18T07:07:53.465Z,17.70
2022-11-18T07:10:21.649Z,15.68
2022-11-18T07:12:50.159Z,15.18
2022-11-18T07:15:18.496Z,14.40
2022-11-18T07:17:46.970Z,13.20
2022-11-18T07:20:15.208Z,14.75
2022-11-18T07:22:45.035Z,12.95
2022-11-18T07:25:13.102Z,17.13
2022-11-18T07:27:41.759Z,15.25
2022-11-18T07:30:10.731Z,15.30
2022-11-18T07:32:39.224Z,13.98
2022-11-18T07:35:08.284Z,16.08
2022-11-18T07:37:36.695Z,16.10
2022-11-18T07:40:07.710Z,16.80
2022-11-18T07:45:12.309Z,12.70
2022-11-18T07:47:40.746Z,13.45
2022-11-18T07:50:09.510Z,16.45
2022-11-18T07:52:37.865Z,17.08
2022-11-18T07:55:08.066Z,18.20
2022-11-18T07:57:36.467Z,20.35
2022-11-18T08:00:05.987Z,15.45
2022-11-18T08:02:34.603Z,17.88
2022-11-18T08:05:02.967Z,14.02
2022-11-18T08:07:31.469Z,17.27
2022-11-18T08:09:59.528Z,17.25
2022-11-18T08:12:30.826Z,18.85
2022-11-18T08:14:59.057Z,17.17
2022-11-18T08:17:27.590Z,17.08
2022-11-18T08:19:55.886Z,15.35
2022-11-18T08:22:24.626Z,15.65
2022-11-18T08:24:52.759Z,15.70
2022-11-18T08:27:21.466Z,14.85
2022-11-18T08:29:51.009Z,24.30
2022-11-18T08:32:20.037Z,20.90
2022-11-18T08:34:48.120Z,19.48
2022-11-18T08:37:16.594Z,13.95
2022-11-18T08:39:44.884Z,15.80
2022-11-18T08:42:13.383Z,16.95
2022-11-18T08:44:41.455Z,16.73
2022-11-18T08:47:11.476Z,20.55
2022-11-18T08:49:39.717Z,19.38
2022-11-18T08:52:08.188Z,21.20
2022-11-18T08:54:36.405Z,16.10
2022-11-18T08:57:05.082Z,20.48
2022-11-18T08:59:33.429Z,15.55
2022-11-18T09:02:02.043Z,18.05
2022-11-18T09:04:31.848Z,18.77
2022-11-18T09:07:00.431Z,14.75
2022-11-18T09:09:28.812Z,13.38
2022-11-18T09:11:57.377Z,13.23
2022-11-18T09:17:15.356Z,15.35
2022-11-18T09:20:05.878Z,13.88
2022-11-18T09:22:33.953Z,12.80
2022-11-18T09:25:02.500Z,15.35
2022-11-18T09:27:30.567Z,14.65
2022-11-18T09:29:59.017Z,13.43
2022-11-18T09:32:27.227Z,15.02
2022-11-18T09:34:55.795Z,13.00
2022-11-18T09:37:25.265Z,16.63
2022-11-18T09:39:53.773Z,17.02
2022-11-18T09:42:31.247Z,15.05
2022-11-18T09:45:14.058Z,14.27
2022-11-18T09:47:44.314Z,16.67
2022-11-18T09:50:47.424Z,17.48
2022-11-18T09:53:12.424Z,18.48
2022-11-18T09:55:41.940Z,18.15
2022-11-18T09:58:16.744Z,18.17
2022-11-18T10:00:46.887Z,18.15
2022-11-18T10:03:18.914Z,18.25
2022-11-18T10:05:50.318Z,19.08
2022-11-18T10:08:23.708Z,20.63
2022-11-18T10:10:59.525Z,20.13
2022-11-18T10:13:36.766Z,21.60
2022-11-18T10:16:11.497Z,19.45
2022-11-18T10:18:59.767Z,18.15
2022-11-18T10:21:39.194Z,21.35
2022-11-18T10:24:14.581Z,23.83
2022-11-18T10:26:43.427Z,18.25
2022-11-18T10:29:11.704Z,18.95
2022-11-18T10:31:40.764Z,20.80
2022-11-18T10:34:12.196Z,20.00
2022-11-18T10:36:41.575Z,20.02
2022-11-18T10:39:13.434Z,18.58
2022-11-18T10:41:46.414Z,17.42
2022-11-18T10:44:38.392Z,17.33
2022-11-18T10:47:18.482Z,19.65
2022-11-18T10:49:47.138Z,16.95
2022-11-18T10:52:16.469Z,18.05
2022-11-18T10:54:46.015Z,18.83
2022-11-18T10:57:17.738Z,19.77
2022-11-18T11:02:18.867Z,18.17
2022-11-18T11:04:47.821Z,18.27
2022-11-18T11:07:27.144Z,19.17
2022-11-18T11:10:09.027Z,22.00
2022-11-18T11:12:39.020Z,20.70
2022-11-18T11:15:12.442Z,18.60
2022-11-18T11:17:44.109Z,24.35
2022-11-18T11:20:19.563Z,22.30
2022-11-18T11:22:48.101Z,18.85
2022-11-18T11:25:19.578Z,18.55
2022-11-18T11:30:46.488Z,17.88
2022-11-18T11:33:28.398Z,16.52
2022-11-18T11:36:05.119Z,19.25
2022-11-18T11:38:42.400Z,21.05
2022-11-18T11:41:17.206Z,17.42
2022-11-18T11:43:59.823Z,17.35
2022-11-18T11:46:39.440Z,18.30
2022-11-18T11:49:18.396Z,18.85
2022-11-18T11:51:50.416Z,18.73
2022-11-18T11:54:29.440Z,18.08
2022-11-18T11:57:00.574Z,20.90
2022-11-18T11:59:33.289Z,18.40
2022-11-18T12:02:26.513Z,17.88
2022-11-18T12:04:56.808Z,18.42
2022-11-18T12:07:29.190Z,18.92
2022-11-18T12:10:16.592Z,17.73
2022-11-18T12:12:53.256Z,17.15
2022-11-18T12:15:31.324Z,16.92
2022-11-18T12:18:06.545Z,16.95
2022-11-18T12:20:43.800Z,16.45
2022-11-18T12:23:14.156Z,16.85
2022-11-18T12:26:10.485Z,19.23
2022-11-18T12:28:42.242Z,19.27
2022-11-18T12:31:35.338Z,17.92
2022-11-18T12:34:06.186Z,19.30
2022-11-18T12:36:36.281Z,20.70
2022-11-18T12:39:47.510Z,19.20
2022-11-18T12:45:51.461Z,13.88
2022-11-18T12:48:47.037Z,16.35
2022-11-18T12:51:45.154Z,20.80
2022-11-18T12:54:34.784Z,27.27
2022-11-18T12:57:04.746Z,34.20
2022-11-18T12:59:37.616Z,25.73
2022-11-18T13:02:19.210Z,32.75
2022-11-18T13:04:52.138Z,35.92
2022-11-18T13:07:38.560Z,34.97
2022-11-18T13:10:21.364Z,20.23
2022-11-18T13:12:49.874Z,20.25
2022-11-18T13:15:37.240Z,18.58
2022-11-18T13:18:15.107Z,18.42
2022-11-18T13:20:44.277Z,18.08
2022-11-18T13:23:45.304Z,15.10
2022-11-18T13:26:20.451Z,15.02
2022-11-18T13:29:12.337Z,15.98
2022-11-18T13:31:45.434Z,16.63
2022-11-18T13:34:19.688Z,16.17
2022-11-18T13:36:49.915Z,15.18
2022-11-18T13:39:24.332Z,15.60
2022-11-18T13:42:06.382Z,13.85
2022-11-18T13:44:35.961Z,14.00
2022-11-18T13:47:12.845Z,14.80
2022-11-18T13:50:02.578Z,16.52
2022-11-18T13:52:33.698Z,16.30
2022-11-18T13:55:03.185Z,15.90
2022-11-18T13:57:31.820Z,15.88
2022-11-18T14:00:02.400Z,19.30
2022-11-18T14:02:33.431Z,15.07
2022-11-18T14:05:03.475Z,16.05
2022-11-18T14:07:34.084Z,17.13
2022-11-18T14:10:04.030Z,18.58
2022-11-18T14:12:33.870Z,20.08
2022-11-18T14:15:16.888Z,19.70
2022-11-18T14:17:56.045Z,18.27
2022-11-18T14:20:25.877Z,18.58
2022-11-18T14:22:56.148Z,17.40
2022-11-18T14:25:28.838Z,17.42
2022-11-18T14:27:58.390Z,17.20
2022-11-18T14:30:35.729Z,21.17
2022-11-18T14:33:18.721Z,20.13
2022-11-18T14:35:50.921Z,21.10
2022-11-18T14:41:11.695Z,16.85
2022-11-18T14:43:40.138Z,17.83
2022-11-18T14:46:14.105Z,16.80
2022-11-18T14:48:42.495Z,15.98
2022-11-18T14:51:15.189Z,17.38
2022-11-18T14:53:43.817Z,14.52
2022-11-18T14:56:16.022Z,15.02
2022-11-18T14:58:44.385Z,22.00
2022-11-18T15:01:13.852Z,42.63
2022-11-18T15:03:42.455Z,22.00
2022-11-18T15:06:16.333Z,18.35
2022-11-18T15:08:46.233Z,18.02
2022-11-18T15:11:14.997Z,18.20
2022-11-18T15:13:43.788Z,17.25
2022-11-18T15:16:15.081Z,16.02
2022-11-18T15:18:43.979Z,15.48
2022-11-18T15:21:12.293Z,13.20
2022-11-18T15:23:43.846Z,14.65
2022-11-18T15:26:18.055Z,14.93
2022-11-18T15:28:46.976Z,14.13
2022-11-18T15:31:15.138Z,16.42
2022-11-18T15:33:43.756Z,14.50
2022-11-18T15:36:14.223Z,19.20
2022-11-18T15:38:44.519Z,16.42
2022-11-18T15:41:17.612Z,16.90
2022-11-18T15:43:46.452Z,18.75
2022-11-18T15:46:14.931Z,18.98
2022-11-18T15:48:43.278Z,22.38
2022-11-18T15:51:12.260Z,19.08
2022-11-18T15:53:41.094Z,17.70
2022-11-18T15:56:18.175Z,17.25
2022-11-18T15:58:46.800Z,22.83
2022-11-18T16:01:15.043Z,22.30
2022-11-18T16:03:43.639Z,16.60
2022-11-18T16:06:11.763Z,20.33
2022-11-18T16:08:40.227Z,19.23
2022-11-18T16:11:26.371Z,19.73
2022-11-18T16:13:56.171Z,17.17
2022-11-18T16:16:27.408Z,18.00
2022-11-18T16:18:56.281Z,17.02
2022-11-18T16:21:24.870Z,16.35
2022-11-18T16:23:55.987Z,18.95
2022-11-18T16:26:24.155Z,18.75
2022-11-18T16:28:52.736Z,18.55
2022-11-18T16:31:40.000Z,16.90
2022-11-18T16:34:08.989Z,17.83
2022-11-18T16:36:37.362Z,18.27
2022-11-18T16:39:07.465Z,18.42
2022-11-18T16:41:35.911Z,18.35
2022-11-18T16:44:06.113Z,21.77
2022-11-18T16:46:37.089Z,25.13
2022-11-18T16:49:06.332Z,20.98
2022-11-18T16:51:35.433Z,20.98
2022-11-18T16:54:05.389Z,19.25
2022-11-18T16:56:34.939Z,17.70
2022-11-18T16:59:04.974Z,17.02
2022-11-18T17:01:36.446Z,19.98
2022-11-18T17:04:06.544Z,18.98
2022-11-18T17:06:34.746Z,20.45
2022-11-18T17:09:03.214Z,19.52
2022-11-18T17:11:31.427Z,18.63
2022-11-18T17:13:59.895Z,18.20
2022-11-18T17:16:28.315Z,19.17
2022-11-18T17:18:57.845Z,16.23
2022-11-18T17:21:28.444Z,17.63
2022-11-18T17:23:57.648Z,16.73
2022-11-18T17:26:27.532Z,17.27
2022-11-18T17:28:57.476Z,18.33
2022-11-18T17:31:26.315Z,18.35
2022-11-18T17:33:56.212Z,17.48
2022-11-18T17:36:25.844Z,18.42
2022-11-18T17:38:56.724Z,19.70
2022-11-18T17:41:43.653Z,18.42
2022-11-18T17:44:13.979Z,19.17
2022-11-18T17:46:42.863Z,20.17
2022-11-18T17:49:13.539Z,17.55
2022-11-18T17:51:41.879Z,18.50
2022-11-18T17:54:12.164Z,17.63
2022-11-18T17:56:40.643Z,17.73
2022-11-18T17:59:09.184Z,16.38
2022-11-18T18:01:37.522Z,16.52
2022-11-18T18:04:06.279Z,38.72
2022-11-18T18:06:34.400Z,22.08
2022-11-18T18:09:02.803Z,19.10
2022-11-18T18:11:32.421Z,20.17
2022-11-18T18:14:15.021Z,19.55
2022-11-18T18:16:45.138Z,19.33
2022-11-18T18:19:15.582Z,19.37
2022-11-18T18:21:43.730Z,20.98
2022-11-18T18:24:12.899Z,22.05
2022-11-18T18:26:44.076Z,26.05
2022-11-18T18:29:12.880Z,22.13
2022-11-18T18:31:42.427Z,18.73
2022-11-18T18:34:11.044Z,21.27
2022-11-18T18:36:39.303Z,18.98
2022-11-18T18:39:07.714Z,15.68
2022-11-18T18:41:36.487Z,15.80
2022-11-18T18:44:06.605Z,16.15
2022-11-18T18:46:33.877Z,14.57
2022-11-18T18:49:05.243Z,14.82
2022-11-18T18:51:36.202Z,18.23
2022-11-18T18:56:33.704Z,19.17
2022-11-18T18:59:02.913Z,13.07
2022-11-18T19:01:33.715Z,12.55
2022-11-18T19:06:54.875Z,12.15
2022-11-18T19:09:20.920Z,12.63
2022-11-18T19:12:06.462Z,13.23
2022-11-18T19:14:35.683Z,14.43
2022-11-18T19:17:10.573Z,12.98
2022-11-18T19:19:58.692Z,12.48
2022-11-18T19:22:27.169Z,17.10
2022-11-18T19:24:56.125Z,16.02
2022-11-18T19:27:24.828Z,17.58
2022-11-18T19:29:53.347Z,11.52
2022-11-18T19:32:23.446Z,9.82
2022-11-18T19:34:52.181Z,11.10
2022-11-18T19:37:20.408Z,9.65
2022-11-18T19:39:49.022Z,11.45
2022-11-18T19:42:17.110Z,10.30
2022-11-18T19:44:45.640Z,10.38
2022-11-18T19:47:13.714Z,11.32
2022-11-18T19:49:43.528Z,10.30
2022-11-18T19:52:11.828Z,11.30
2022-11-18T19:54:40.727Z,10.52
2022-11-18T19:57:09.131Z,11.52
2022-11-18T19:59:37.869Z,11.50
2022-11-18T20:02:06.146Z,10.93
2022-11-18T20:04:34.786Z,11.93
2022-11-18T20:07:04.870Z,11.52
2022-11-18T20:09:33.923Z,10.10
2022-11-18T20:12:02.171Z,11.10
2022-11-18T20:14:30.599Z,10.27
2022-11-18T20:16:58.788Z,9.23
2022-11-18T20:19:27.245Z,10.63
2022-11-18T20:21:55.580Z,12.25
2022-11-18T20:24:25.491Z,10.18
2022-11-18T20:26:53.634Z,8.95
2022-11-18T20:29:22.289Z,10.18
2022-11-18T20:31:50.832Z,8.65
2022-11-18T20:34:19.335Z,10.80
2022-11-18T20:36:51.885Z,11.15
2022-11-18T20:39:20.757Z,8.82
2022-11-18T20:42:07.147Z,9.88
2022-11-18T20:44:35.509Z,8.65
2022-11-18T20:47:03.740Z,9.40
2022-11-18T20:49:32.073Z,8.80
2022-11-18T20:52:00.178Z,8.43
2022-11-18T20:54:28.505Z,8.05
2022-11-18T20:56:58.110Z,8.52
2022-11-18T20:59:26.605Z,7.68
2022-11-18T21:01:54.866Z,8.40
2022-11-18T21:04:23.785Z,8.05
2022-11-18T21:06:57.547Z,7.32
2022-11-18T21:09:26.620Z,7.22
2022-11-18T21:11:54.982Z,7.25
2022-11-18T21:14:25.493Z,7.70
2022-11-18T21:16:55.452Z,7.95
2022-11-18T21:19:26.286Z,8.20
2022-11-18T21:21:53.792Z,8.40
2022-11-18T21:24:23.409Z,8.48
2022-11-18T21:26:54.782Z,8.70
2022-11-18T21:29:25.967Z,7.85
2022-11-18T21:31:54.872Z,9.88
2022-11-18T21:34:24.359Z,10.27
2022-11-18T21:36:54.923Z,10.98
2022-11-18T21:41:57.087Z,11.27
2022-11-18T21:44:28.830Z,11.70
2022-11-18T21:46:57.687Z,11.85
2022-11-18T21:49:26.481Z,12.25
2022-11-18T21:51:54.593Z,11.90
2022-11-18T21:54:23.062Z,13.73
2022-11-18T21:56:51.233Z,14.43
2022-11-18T21:59:19.729Z,13.35
2022-11-18T22:01:49.329Z,14.13
2022-11-18T22:04:31.620Z,14.38
2022-11-18T22:06:59.833Z,14.40
2022-11-18T22:09:34.527Z,14.95
2022-11-18T22:12:04.323Z,14.18
2022-11-18T22:14:32.911Z,14.35
2022-11-18T22:17:02.327Z,13.77
2022-11-18T22:19:30.816Z,15.02
2022-11-18T22:21:59.034Z,14.82
2022-11-18T22:24:27.401Z,15.18
2022-11-18T22:26:55.459Z,14.35
2022-11-18T22:29:26.164Z,14.13
2022-11-18T22:31:54.465Z,14.77
2022-11-18T22:34:24.356Z,14.95
2022-11-18T22:36:52.492Z,14.68
2022-11-18T22:39:21.426Z,14.05
2022-11-18T22:42:07.408Z,15.00
2022-11-18T22:44:36.498Z,14.10
2022-11-18T22:47:04.766Z,14.20
2022-11-18T22:49:34.634Z,13.52
2022-11-18T22:52:03.507Z,12.82
2022-11-18T22:54:38.838Z,12.93
2022-11-18T22:57:08.171Z,14.02
2022-11-18T22:59:36.564Z,13.30
2022-11-18T23:02:04.837Z,14.35
2022-11-18T23:04:34.826Z,13.05
2022-11-18T23:07:03.126Z,13.40
2022-11-18T23:09:31.734Z,12.98
2022-11-18T23:12:17.279Z,12.40
2022-11-18T23:14:45.674Z,11.00
2022-11-18T23:17:13.772Z,12.07
2022-11-18T23:19:44.004Z,12.20
2022-11-18T23:22:12.560Z,12.52
2022-11-18T23:24:41.100Z,12.05
2022-11-18T23:27:09.187Z,10.85
2022-11-18T23:29:37.514Z,10.60
2022-11-18T23:32:06.079Z,9.25
2022-11-18T23:34:34.630Z,9.32
2022-11-18T23:37:04.158Z,8.48
2022-11-18T23:39:32.582Z,9.30
2022-11-18T23:42:00.684Z,8.23
2022-11-18T23:44:47.553Z,7.90
2022-11-18T23:47:15.664Z,8.20
2022-11-18T23:49:43.973Z,8.55
2022-11-18T23:52:15.018Z,8.93
2022-11-18T23:57:11.220Z,9.15
2022-11-18T23:59:39.679Z,8.52
